createdAt,value
2019-01-08T00:00:11.280Z,85.20
2019-01-08T00:00:49.911Z,85.50
2019-01-08T00:01:28.548Z,85.70
2019-01-08T00:02:07.214Z,85.90
2019-01-08T00:02:45.974Z,86.00
2019-01-08T00:03:24.653Z,86.10
2019-01-08T00:04:03.418Z,86.30
2019-01-08T00:04:41.980Z,86.40
2019-01-08T00:05:20.709Z,86.50
2019-01-08T00:05:59.308Z,86.60
2019-01-08T00:06:37.980Z,86.70
2019-01-08T00:07:17.633Z,86.80
2019-01-08T00:07:56.550Z,86.80
2019-01-08T00:08:35.289Z,87.00
2019-01-08T00:09:14.000Z,87.50
2019-01-08T00:09:52.766Z,87.40
2019-01-08T00:10:31.470Z,87.50
2019-01-08T00:11:10.158Z,87.30
2019-01-08T00:11:48.840Z,87.50
2019-01-08T00:12:27.667Z,87.70
2019-01-08T00:13:06.386Z,87.70
2019-01-08T00:13:45.121Z,87.70
2019-01-08T00:14:23.771Z,87.80
2019-01-08T00:15:02.469Z,87.90
2019-01-08T00:15:41.185Z,88.00
2019-01-08T00:16:19.837Z,88.00
2019-01-08T00:16:58.540Z,88.00
2019-01-08T00:17:37.247Z,88.00
2019-01-08T00:18:15.971Z,88.10
2019-01-08T00:18:54.832Z,88.20
2019-01-08T00:19:33.575Z,88.40
2019-01-08T00:20:12.291Z,88.30
2019-01-08T00:20:51.033Z,88.40
2019-01-08T00:21:29.746Z,88.50
2019-01-08T00:22:08.430Z,88.50
2019-01-08T00:22:47.059Z,88.60
2019-01-08T00:23:25.707Z,88.60
2019-01-08T00:24:04.313Z,88.60
2019-01-08T00:24:43.079Z,88.80
2019-01-08T00:25:21.762Z,88.80
2019-01-08T00:26:00.488Z,88.70
2019-01-08T00:26:39.126Z,88.80
2019-01-08T00:27:17.772Z,88.70
2019-01-08T00:27:56.540Z,88.80
2019-01-08T00:28:42.901Z,88.90
2019-01-08T00:29:15.475Z,89.00
2019-01-08T00:29:54.130Z,89.10
2019-01-08T00:30:32.800Z,88.90
2019-01-08T00:31:11.488Z,89.20
2019-01-08T00:31:50.176Z,89.10
2019-01-08T00:32:28.825Z,89.10
2019-01-08T00:33:07.524Z,89.10
2019-01-08T00:33:46.337Z,89.00
2019-01-08T00:34:25.052Z,89.00
2019-01-08T00:35:03.766Z,89.80
2019-01-08T00:35:42.519Z,89.20
2019-01-08T00:36:21.275Z,89.10
2019-01-08T00:37:00.009Z,89.20
2019-01-08T00:37:38.771Z,89.20
2019-01-08T00:38:17.442Z,89.30
2019-01-08T00:38:56.117Z,89.20
2019-01-08T00:39:34.876Z,89.10
2019-01-08T00:40:14.264Z,89.40
2019-01-08T00:40:53.063Z,89.30
2019-01-08T00:41:31.794Z,89.40
2019-01-08T00:42:10.459Z,89.30
2019-01-08T00:42:49.270Z,89.30
2019-01-08T00:43:28.057Z,89.30
2019-01-08T00:44:06.869Z,89.30
2019-01-08T00:44:45.861Z,89.30
2019-01-08T00:45:24.582Z,89.20
2019-01-08T00:46:03.283Z,89.30
2019-01-08T00:46:42.041Z,89.30
2019-01-08T00:47:20.859Z,89.20
2019-01-08T00:47:59.645Z,89.30
2019-01-08T00:48:38.407Z,89.30
2019-01-08T00:49:17.137Z,89.50
2019-01-08T00:49:55.935Z,89.50
2019-01-08T00:50:34.538Z,89.40
2019-01-08T00:51:13.312Z,89.40
2019-01-08T00:51:51.990Z,89.30
2019-01-08T00:52:30.726Z,89.40
2019-01-08T00:53:09.481Z,89.30
2019-01-08T00:53:48.298Z,89.40
2019-01-08T00:54:26.990Z,89.30
2019-01-08T00:55:05.747Z,89.30
2019-01-08T00:55:44.448Z,89.20
2019-01-08T00:56:23.172Z,89.30
2019-01-08T00:57:01.877Z,89.20
2019-01-08T00:57:40.598Z,89.10
2019-01-08T00:58:19.396Z,89.10
2019-01-08T00:58:58.259Z,89.10
2019-01-08T00:59:36.948Z,89.10
2019-01-08T01:00:15.757Z,89.00
2019-01-08T01:00:54.614Z,89.10
2019-01-08T01:01:33.406Z,89.00
2019-01-08T01:02:12.067Z,89.00
2019-01-08T01:02:50.870Z,89.00
2019-01-08T01:03:29.489Z,89.00
2019-01-08T01:04:08.263Z,88.90
2019-01-08T01:04:47.025Z,88.90
2019-01-08T01:05:25.673Z,88.90
2019-01-08T01:06:04.445Z,88.90
2019-01-08T01:06:43.254Z,88.90
2019-01-08T01:07:22.176Z,88.80
2019-01-08T01:08:01.046Z,88.70
2019-01-08T01:08:39.872Z,88.70
2019-01-08T01:09:18.545Z,88.80
2019-01-08T01:09:57.345Z,88.70
2019-01-08T01:10:36.123Z,88.70
2019-01-08T01:11:14.823Z,88.70
2019-01-08T01:11:53.586Z,88.70
2019-01-08T01:12:32.292Z,88.50
2019-01-08T01:13:11.012Z,88.50
2019-01-08T01:13:49.772Z,88.50
2019-01-08T01:14:28.587Z,88.50
2019-01-08T01:15:07.329Z,89.30
2019-01-08T01:15:46.954Z,88.50
2019-01-08T01:16:25.703Z,88.40
2019-01-08T01:17:04.668Z,88.40
2019-01-08T01:17:43.340Z,88.40
2019-01-08T01:18:23.827Z,88.30
2019-01-08T01:19:02.643Z,88.20
2019-01-08T01:19:41.331Z,88.30
2019-01-08T01:20:19.966Z,88.30
2019-01-08T01:20:58.755Z,88.20
2019-01-08T01:21:37.593Z,88.20
2019-01-08T01:22:16.315Z,88.20
2019-01-08T01:22:55.045Z,88.10
2019-01-08T01:23:33.857Z,88.10
2019-01-08T01:24:12.453Z,88.10
2019-01-08T01:24:51.206Z,88.10
2019-01-08T01:25:29.912Z,88.00
2019-01-08T01:26:08.638Z,88.10
2019-01-08T01:26:47.323Z,88.20
2019-01-08T01:27:26.177Z,87.90
2019-01-08T01:28:05.048Z,87.90
2019-01-08T01:28:43.858Z,88.00
2019-01-08T01:29:22.655Z,87.90
2019-01-08T01:30:01.478Z,87.90
2019-01-08T01:30:40.188Z,87.90
2019-01-08T01:31:18.965Z,87.80
2019-01-08T01:31:57.683Z,87.80
2019-01-08T01:32:36.344Z,87.80
2019-01-08T01:33:15.021Z,87.80
2019-01-08T01:33:53.848Z,87.70
2019-01-08T01:34:32.658Z,87.70
2019-01-08T01:35:11.480Z,87.80
2019-01-08T01:35:50.151Z,87.70
2019-01-08T01:36:28.980Z,88.50
2019-01-08T01:37:07.715Z,87.80
2019-01-08T01:37:46.386Z,87.70
2019-01-08T01:38:25.282Z,87.70
2019-01-08T01:39:04.033Z,87.70
2019-01-08T01:39:42.805Z,87.70
2019-01-08T01:40:21.625Z,87.70
2019-01-08T01:41:00.324Z,87.60
2019-01-08T01:41:39.060Z,87.50
2019-01-08T01:42:17.737Z,87.60
2019-01-08T01:42:56.488Z,87.50
2019-01-08T01:43:35.241Z,87.50
2019-01-08T01:44:14.886Z,87.40
2019-01-08T01:44:53.633Z,87.50
2019-01-08T01:45:32.399Z,87.50
2019-01-08T01:46:11.255Z,87.50
2019-01-08T01:46:49.991Z,87.50
2019-01-08T01:47:28.830Z,87.60
2019-01-08T01:48:07.485Z,87.60
2019-01-08T01:48:46.287Z,87.60
2019-01-08T01:49:25.069Z,87.60
2019-01-08T01:50:03.833Z,87.60
2019-01-08T01:50:42.579Z,87.70
2019-01-08T01:51:21.320Z,87.70
2019-01-08T01:52:00.066Z,87.70
2019-01-08T01:52:38.834Z,87.70
2019-01-08T01:53:17.495Z,87.50
2019-01-08T01:53:56.217Z,87.70
2019-01-08T01:54:35.025Z,87.70
2019-01-08T01:55:13.728Z,87.80
2019-01-08T01:55:52.646Z,87.70
2019-01-08T01:56:31.550Z,87.70
2019-01-08T01:57:10.187Z,87.60
2019-01-08T01:57:49.025Z,87.70
2019-01-08T01:58:27.771Z,87.60
2019-01-08T01:59:08.678Z,87.70
2019-01-08T01:59:46.651Z,87.70
2019-01-08T02:00:25.381Z,87.70
2019-01-08T02:01:04.134Z,87.70
2019-01-08T02:01:43.005Z,87.70
2019-01-08T02:02:21.671Z,87.70
2019-01-08T02:03:00.445Z,87.60
2019-01-08T02:03:39.203Z,87.70
2019-01-08T02:04:17.964Z,87.70
2019-01-08T02:04:56.823Z,87.70
2019-01-08T02:05:35.875Z,87.70
2019-01-08T02:06:14.980Z,87.70
2019-01-08T02:06:53.669Z,87.70
2019-01-08T02:07:32.384Z,87.70
2019-01-08T02:08:11.136Z,87.60
2019-01-08T02:08:50.075Z,87.80
2019-01-08T02:09:28.817Z,87.50
2019-01-08T02:10:07.573Z,87.50
2019-01-08T02:10:46.318Z,87.50
2019-01-08T02:11:25.109Z,87.50
2019-01-08T02:12:03.887Z,87.40
2019-01-08T02:12:42.666Z,87.50
2019-01-08T02:13:21.464Z,87.40
2019-01-08T02:14:00.233Z,87.40
2019-01-08T02:14:39.207Z,87.40
2019-01-08T02:15:17.878Z,87.40
2019-01-08T02:15:56.639Z,87.30
2019-01-08T02:16:35.375Z,87.20
2019-01-08T02:17:14.047Z,87.20
2019-01-08T02:17:52.738Z,87.10
2019-01-08T02:18:31.371Z,87.10
2019-01-08T02:19:10.084Z,87.10
2019-01-08T02:19:48.736Z,87.10
2019-01-08T02:20:27.479Z,87.00
2019-01-08T02:21:06.229Z,86.90
2019-01-08T02:21:44.953Z,86.80
2019-01-08T02:22:23.665Z,86.80
2019-01-08T02:23:02.322Z,86.70
2019-01-08T02:23:41.146Z,86.60
2019-01-08T02:24:19.896Z,86.60
2019-01-08T02:24:58.718Z,86.50
2019-01-08T02:25:37.440Z,86.40
2019-01-08T02:26:16.205Z,86.40
2019-01-08T02:26:54.977Z,86.40
2019-01-08T02:27:33.724Z,86.30
2019-01-08T02:28:12.343Z,86.20
2019-01-08T02:28:51.075Z,86.20
2019-01-08T02:29:29.752Z,86.10
2019-01-08T02:30:08.727Z,86.10
2019-01-08T02:30:47.458Z,86.00
2019-01-08T02:31:26.303Z,86.00
2019-01-08T02:32:04.961Z,85.90
2019-01-08T02:32:43.667Z,85.70
2019-01-08T02:33:22.406Z,85.70
2019-01-08T02:34:01.192Z,85.60
2019-01-08T02:34:40.023Z,85.50
2019-01-08T02:35:18.822Z,85.50
2019-01-08T02:35:57.595Z,85.40
2019-01-08T02:36:36.339Z,85.50
2019-01-08T02:37:15.234Z,85.40
2019-01-08T02:37:53.863Z,85.50
2019-01-08T02:38:32.829Z,85.50
2019-01-08T02:39:11.961Z,85.50
2019-01-08T02:39:50.790Z,85.50
2019-01-08T02:40:29.602Z,85.50
2019-01-08T02:41:08.287Z,85.50
2019-01-08T02:41:47.078Z,85.50
2019-01-08T02:42:25.856Z,85.50
2019-01-08T02:43:04.639Z,85.40
2019-01-08T02:43:43.414Z,86.10
2019-01-08T02:44:22.235Z,85.40
2019-01-08T02:45:01.028Z,85.30
2019-01-08T02:45:39.853Z,85.30
2019-01-08T02:46:18.668Z,85.30
2019-01-08T02:46:57.461Z,85.30
2019-01-08T02:47:36.204Z,85.30
2019-01-08T02:48:15.007Z,85.30
2019-01-08T02:48:53.725Z,85.20
2019-01-08T02:49:32.909Z,85.20
2019-01-08T02:50:11.753Z,85.20
2019-01-08T02:50:50.718Z,85.20
2019-01-08T02:51:29.495Z,85.10
2019-01-08T02:52:08.300Z,85.10
2019-01-08T02:52:47.018Z,85.10
2019-01-08T02:53:25.762Z,85.10
2019-01-08T02:54:04.479Z,85.10
2019-01-08T02:54:43.321Z,85.00
2019-01-08T02:55:22.125Z,85.00
2019-01-08T02:56:00.974Z,85.00
2019-01-08T02:56:39.772Z,85.10
2019-01-08T02:57:18.660Z,85.10
2019-01-08T02:57:57.377Z,85.10
2019-01-08T02:58:36.027Z,85.10
2019-01-08T02:59:14.677Z,85.10
2019-01-08T02:59:53.413Z,85.10
2019-01-08T03:00:32.202Z,85.80
2019-01-08T03:01:10.967Z,85.00
2019-01-08T03:01:49.648Z,85.00
2019-01-08T03:02:28.545Z,85.00
2019-01-08T03:03:07.311Z,85.00
2019-01-08T03:03:46.262Z,84.90
2019-01-08T03:04:25.064Z,84.90
2019-01-08T03:05:03.853Z,84.90
2019-01-08T03:05:42.636Z,84.90
2019-01-08T03:06:21.378Z,85.00
2019-01-08T03:07:00.400Z,85.00
2019-01-08T03:07:39.141Z,85.00
2019-01-08T03:08:17.835Z,85.00
2019-01-08T03:08:56.644Z,85.00
2019-01-08T03:09:40.309Z,85.00
2019-01-08T03:10:19.050Z,85.00
2019-01-08T03:10:57.847Z,85.10
2019-01-08T03:11:36.573Z,85.20
2019-01-08T03:12:15.414Z,85.40
2019-01-08T03:12:54.271Z,85.30
2019-01-08T03:13:33.021Z,85.30
2019-01-08T03:14:11.749Z,85.50
2019-01-08T03:14:50.553Z,85.30
2019-01-08T03:15:29.396Z,85.50
2019-01-08T03:16:08.063Z,85.40
2019-01-08T03:16:46.791Z,85.40
2019-01-08T03:17:25.545Z,85.30
2019-01-08T03:18:04.289Z,85.30
2019-01-08T03:18:43.087Z,85.30
2019-01-08T03:19:21.761Z,84.70
2019-01-08T03:20:00.573Z,84.70
2019-01-08T03:20:39.300Z,84.40
2019-01-08T03:21:18.104Z,84.70
2019-01-08T03:21:56.824Z,84.70
2019-01-08T03:22:35.685Z,84.60
2019-01-08T03:23:14.421Z,84.70
2019-01-08T03:23:53.165Z,84.60
2019-01-08T03:24:31.972Z,84.40
2019-01-08T03:25:10.684Z,84.50
2019-01-08T03:25:49.430Z,84.50
2019-01-08T03:26:28.289Z,84.50
2019-01-08T03:27:06.991Z,84.70
2019-01-08T03:27:45.662Z,84.60
2019-01-08T03:28:24.359Z,84.70
2019-01-08T03:29:03.134Z,84.80
2019-01-08T03:29:42.014Z,84.80
2019-01-08T03:30:20.830Z,85.00
2019-01-08T03:30:59.526Z,84.50
2019-01-08T03:31:38.236Z,85.30
2019-01-08T03:32:16.947Z,85.00
2019-01-08T03:32:55.784Z,85.00
2019-01-08T03:33:34.456Z,85.10
2019-01-08T03:34:13.314Z,85.00
2019-01-08T03:34:51.994Z,85.30
2019-01-08T03:35:30.697Z,85.60
2019-01-08T03:36:09.448Z,85.40
2019-01-08T03:36:48.207Z,85.60
2019-01-08T03:37:26.945Z,85.50
2019-01-08T03:38:05.737Z,84.80
2019-01-08T03:38:44.519Z,85.30
2019-01-08T03:39:23.307Z,85.80
2019-01-08T03:40:02.061Z,84.70
2019-01-08T03:40:40.775Z,85.30
2019-01-08T03:41:19.572Z,84.80
2019-01-08T03:41:58.300Z,85.20
2019-01-08T03:42:37.116Z,85.30
2019-01-08T03:43:15.870Z,83.90
2019-01-08T03:43:54.525Z,84.30
2019-01-08T03:44:33.319Z,83.80
2019-01-08T03:45:12.052Z,84.60
2019-01-08T03:45:50.698Z,83.70
2019-01-08T03:46:29.536Z,83.90
2019-01-08T03:47:08.359Z,83.60
2019-01-08T03:47:47.038Z,84.10
2019-01-08T03:48:25.823Z,83.90
2019-01-08T03:49:04.475Z,83.70
2019-01-08T03:49:43.248Z,84.60
2019-01-08T03:50:22.033Z,83.40
2019-01-08T03:51:00.794Z,83.40
2019-01-08T03:51:39.506Z,83.20
2019-01-08T03:52:18.318Z,83.30
2019-01-08T03:52:56.985Z,83.40
2019-01-08T03:53:36.510Z,83.80
2019-01-08T03:54:15.271Z,83.10
2019-01-08T03:54:54.018Z,83.10
2019-01-08T03:55:32.886Z,83.00
2019-01-08T03:56:11.629Z,82.90
2019-01-08T03:56:50.413Z,82.70
2019-01-08T03:57:29.167Z,82.90
2019-01-08T03:58:07.950Z,82.60
2019-01-08T03:58:46.761Z,82.90
2019-01-08T03:59:25.417Z,82.80
2019-01-08T04:00:04.293Z,82.60
2019-01-08T04:00:43.061Z,82.60
2019-01-08T04:01:21.770Z,82.40
2019-01-08T04:02:00.376Z,83.10
2019-01-08T04:02:39.137Z,82.60
2019-01-08T04:03:18.015Z,82.90
2019-01-08T04:03:56.890Z,82.40
2019-01-08T04:04:35.587Z,82.40
2019-01-08T04:05:14.379Z,82.40
2019-01-08T04:05:53.453Z,82.60
2019-01-08T04:06:32.086Z,82.60
2019-01-08T04:07:10.837Z,82.50
2019-01-08T04:07:50.966Z,82.30
2019-01-08T04:08:29.694Z,82.30
2019-01-08T04:09:08.956Z,82.10
2019-01-08T04:09:47.702Z,82.40
2019-01-08T04:10:26.409Z,81.90
2019-01-08T04:11:05.183Z,81.90
2019-01-08T04:11:43.890Z,82.20
2019-01-08T04:12:22.684Z,82.10
2019-01-08T04:13:01.459Z,81.90
2019-01-08T04:13:40.106Z,81.90
2019-01-08T04:14:18.824Z,82.70
2019-01-08T04:14:57.576Z,81.70
2019-01-08T04:15:36.294Z,81.80
2019-01-08T04:16:15.066Z,81.90
2019-01-08T04:16:53.792Z,81.50
2019-01-08T04:17:32.535Z,81.60
2019-01-08T04:18:11.215Z,81.40
2019-01-08T04:18:50.014Z,81.70
2019-01-08T04:19:28.642Z,81.50
2019-01-08T04:20:07.530Z,81.60
2019-01-08T04:20:46.328Z,81.60
2019-01-08T04:21:25.024Z,81.50
2019-01-08T04:22:03.731Z,81.40
2019-01-08T04:22:42.378Z,82.20
2019-01-08T04:23:21.017Z,81.30
2019-01-08T04:24:00.985Z,81.40
2019-01-08T04:24:39.680Z,81.30
2019-01-08T04:25:18.389Z,81.20
2019-01-08T04:25:57.183Z,81.40
2019-01-08T04:26:35.951Z,81.00
2019-01-08T04:27:14.699Z,81.00
2019-01-08T04:27:53.355Z,81.00
2019-01-08T04:28:32.172Z,81.10
2019-01-08T04:29:11.009Z,81.70
2019-01-08T04:29:50.586Z,81.10
2019-01-08T04:30:29.596Z,81.20
2019-01-08T04:31:08.306Z,81.00
2019-01-08T04:31:47.215Z,81.00
2019-01-08T04:32:26.006Z,80.80
2019-01-08T04:33:04.816Z,80.80
2019-01-08T04:33:43.601Z,80.80
2019-01-08T04:34:22.454Z,80.80
2019-01-08T04:35:01.236Z,80.90
2019-01-08T04:35:39.966Z,80.70
2019-01-08T04:36:18.740Z,80.70
2019-01-08T04:36:57.539Z,80.70
2019-01-08T04:37:36.296Z,80.70
2019-01-08T04:38:15.284Z,80.50
2019-01-08T04:38:53.953Z,80.30
2019-01-08T04:39:32.721Z,80.50
2019-01-08T04:40:11.469Z,80.80
2019-01-08T04:40:50.263Z,80.30
2019-01-08T04:41:29.129Z,80.50
2019-01-08T04:42:07.898Z,80.40
2019-01-08T04:42:46.730Z,80.40
2019-01-08T04:43:25.419Z,80.40
2019-01-08T04:44:04.270Z,80.40
2019-01-08T04:44:43.098Z,80.40
2019-01-08T04:45:21.911Z,80.30
2019-01-08T04:46:00.910Z,80.00
2019-01-08T04:46:39.679Z,79.90
2019-01-08T04:47:18.362Z,80.00
2019-01-08T04:47:57.165Z,79.90
2019-01-08T04:48:35.851Z,79.80
2019-01-08T04:49:14.493Z,79.00
2019-01-08T04:49:53.257Z,78.70
2019-01-08T04:50:31.982Z,78.20
2019-01-08T04:51:10.718Z,77.80
2019-01-08T04:51:49.406Z,77.70
2019-01-08T04:52:28.353Z,77.50
2019-01-08T04:53:07.064Z,77.50
2019-01-08T04:53:45.822Z,77.60
2019-01-08T04:54:24.459Z,77.70
2019-01-08T04:55:03.199Z,77.70
2019-01-08T04:55:42.048Z,78.10
2019-01-08T04:56:20.860Z,78.00
2019-01-08T04:56:59.668Z,78.00
2019-01-08T04:57:38.302Z,78.00
2019-01-08T04:58:17.237Z,78.10
2019-01-08T04:58:55.972Z,78.10
2019-01-08T04:59:34.738Z,78.20
2019-01-08T05:00:14.078Z,78.10
2019-01-08T05:00:52.990Z,78.20
2019-01-08T05:01:31.830Z,78.10
2019-01-08T05:02:10.476Z,78.20
2019-01-08T05:02:49.280Z,78.20
2019-01-08T05:03:28.029Z,78.10
2019-01-08T05:04:06.835Z,77.90
2019-01-08T05:04:45.848Z,77.90
2019-01-08T05:05:24.601Z,77.90
2019-01-08T05:06:03.355Z,77.80
2019-01-08T05:06:42.112Z,77.80
2019-01-08T05:07:20.886Z,77.70
2019-01-08T05:07:59.684Z,77.70
2019-01-08T05:08:38.397Z,77.60
2019-01-08T05:09:17.177Z,77.40
2019-01-08T05:09:55.915Z,77.40
2019-01-08T05:10:34.609Z,77.40
2019-01-08T05:11:13.492Z,77.20
2019-01-08T05:11:52.137Z,77.10
2019-01-08T05:12:30.907Z,77.00
2019-01-08T05:13:09.605Z,76.90
2019-01-08T05:13:48.364Z,76.90
2019-01-08T05:14:27.237Z,76.80
2019-01-08T05:15:05.946Z,76.80
2019-01-08T05:15:44.789Z,76.80
2019-01-08T05:16:23.567Z,76.70
2019-01-08T05:17:02.368Z,77.00
2019-01-08T05:17:41.058Z,76.90
2019-01-08T05:18:19.887Z,76.80
2019-01-08T05:18:58.534Z,76.70
2019-01-08T05:19:37.331Z,76.60
2019-01-08T05:20:16.051Z,76.60
2019-01-08T05:20:54.816Z,76.60
2019-01-08T05:21:33.510Z,76.50
2019-01-08T05:22:12.225Z,76.60
2019-01-08T05:22:51.017Z,76.60
2019-01-08T05:23:29.738Z,76.50
2019-01-08T05:24:08.565Z,76.40
2019-01-08T05:24:47.352Z,76.30
2019-01-08T05:25:26.122Z,76.20
2019-01-08T05:26:04.950Z,76.10
2019-01-08T05:26:43.588Z,76.30
2019-01-08T05:27:22.412Z,76.10
2019-01-08T05:28:01.109Z,76.30
2019-01-08T05:28:39.939Z,76.10
2019-01-08T05:29:18.705Z,76.00
2019-01-08T05:29:57.587Z,75.90
2019-01-08T05:30:36.288Z,76.00
2019-01-08T05:31:15.202Z,76.10
2019-01-08T05:31:54.006Z,76.10
2019-01-08T05:32:32.684Z,76.00
2019-01-08T05:33:12.764Z,76.70
2019-01-08T05:33:52.600Z,75.70
2019-01-08T05:34:31.422Z,76.00
2019-01-08T05:35:10.379Z,75.80
2019-01-08T05:35:49.059Z,75.80
2019-01-08T05:36:27.840Z,75.60
2019-01-08T05:37:06.591Z,75.70
2019-01-08T05:37:45.357Z,75.60
2019-01-08T05:38:24.021Z,75.40
2019-01-08T05:39:02.755Z,75.60
2019-01-08T05:39:41.541Z,75.50
2019-01-08T05:40:20.313Z,75.60
2019-01-08T05:40:59.185Z,75.50
2019-01-08T05:41:37.821Z,75.50
2019-01-08T05:42:16.602Z,75.40
2019-01-08T05:42:55.441Z,75.30
2019-01-08T05:43:34.281Z,75.30
2019-01-08T05:44:12.979Z,75.40
2019-01-08T05:44:51.887Z,75.30
2019-01-08T05:45:30.546Z,75.20
2019-01-08T05:46:09.321Z,75.30
2019-01-08T05:46:48.123Z,75.30
2019-01-08T05:47:26.907Z,75.20
2019-01-08T05:48:05.576Z,75.00
2019-01-08T05:48:44.336Z,74.90
2019-01-08T05:49:23.057Z,75.00
2019-01-08T05:50:01.915Z,74.70
2019-01-08T05:50:40.683Z,74.90
2019-01-08T05:51:19.484Z,75.00
2019-01-08T05:51:58.217Z,74.50
2019-01-08T05:52:37.081Z,74.60
2019-01-08T05:53:15.807Z,74.60
2019-01-08T05:53:54.569Z,74.50
2019-01-08T05:54:33.186Z,74.50
2019-01-08T05:55:11.906Z,74.50
2019-01-08T05:55:50.615Z,74.50
2019-01-08T05:56:29.309Z,74.50
2019-01-08T05:57:08.153Z,74.40
2019-01-08T05:57:46.914Z,74.40
2019-01-08T05:58:25.679Z,74.40
2019-01-08T05:59:04.463Z,74.60
2019-01-08T05:59:43.251Z,74.60
2019-01-08T06:00:22.082Z,74.60
2019-01-08T06:01:00.867Z,74.70
2019-01-08T06:01:39.533Z,74.80
2019-01-08T06:02:18.317Z,74.90
2019-01-08T06:02:57.078Z,74.80
2019-01-08T06:03:35.922Z,74.70
2019-01-08T06:04:14.792Z,74.90
2019-01-08T06:04:53.565Z,74.80
2019-01-08T06:05:32.421Z,74.90
2019-01-08T06:06:11.246Z,74.90
2019-01-08T06:06:49.902Z,75.10
2019-01-08T06:07:28.565Z,74.80
2019-01-08T06:08:07.532Z,74.90
2019-01-08T06:08:46.164Z,74.90
2019-01-08T06:09:24.954Z,74.90
2019-01-08T06:10:03.659Z,74.90
2019-01-08T06:10:42.494Z,75.00
2019-01-08T06:11:21.264Z,75.10
2019-01-08T06:11:59.990Z,74.80
2019-01-08T06:12:38.705Z,74.60
2019-01-08T06:13:17.430Z,74.60
2019-01-08T06:13:56.248Z,74.50
2019-01-08T06:14:36.816Z,74.60
2019-01-08T06:15:15.201Z,74.70
2019-01-08T06:15:53.874Z,74.70
2019-01-08T06:16:32.592Z,74.60
2019-01-08T06:17:11.241Z,75.30
2019-01-08T06:17:49.958Z,74.60
2019-01-08T06:18:29.181Z,74.60
2019-01-08T06:19:07.821Z,74.60
2019-01-08T06:19:46.751Z,74.50
2019-01-08T06:20:25.410Z,74.60
2019-01-08T06:21:04.209Z,74.70
2019-01-08T06:21:42.986Z,74.90
2019-01-08T06:22:21.706Z,74.90
2019-01-08T06:23:00.451Z,74.80
2019-01-08T06:23:39.147Z,74.80
2019-01-08T06:24:17.812Z,74.90
2019-01-08T06:24:56.570Z,75.00
2019-01-08T06:25:35.298Z,75.10
2019-01-08T06:26:14.010Z,75.10
2019-01-08T06:26:52.743Z,75.10
2019-01-08T06:27:31.479Z,75.20
2019-01-08T06:28:10.293Z,75.20
2019-01-08T06:28:48.961Z,75.20
2019-01-08T06:29:27.733Z,75.20
2019-01-08T06:30:06.492Z,75.20
2019-01-08T06:30:45.229Z,75.80
2019-01-08T06:31:23.990Z,75.20
2019-01-08T06:32:02.782Z,75.30
2019-01-08T06:32:41.432Z,75.30
2019-01-08T06:33:20.092Z,75.20
2019-01-08T06:33:58.813Z,75.20
2019-01-08T06:34:37.550Z,75.50
2019-01-08T06:35:16.313Z,75.30
2019-01-08T06:35:55.045Z,75.10
2019-01-08T06:36:33.771Z,75.00
2019-01-08T06:37:12.548Z,75.20
2019-01-08T06:37:51.485Z,75.30
2019-01-08T06:38:30.270Z,75.30
2019-01-08T06:39:09.803Z,75.40
2019-01-08T06:39:48.578Z,75.40
2019-01-08T06:40:27.314Z,75.60
2019-01-08T06:41:06.083Z,75.60
2019-01-08T06:41:44.880Z,75.80
2019-01-08T06:42:23.666Z,75.40
2019-01-08T06:43:02.636Z,75.30
2019-01-08T06:43:41.436Z,75.20
2019-01-08T06:44:20.178Z,75.30
2019-01-08T06:44:58.933Z,75.40
2019-01-08T06:45:37.730Z,75.40
2019-01-08T06:46:16.490Z,75.20
2019-01-08T06:46:55.216Z,75.40
2019-01-08T06:47:33.917Z,75.70
2019-01-08T06:48:12.669Z,75.60
2019-01-08T06:48:51.372Z,75.40
2019-01-08T06:49:30.124Z,75.20
2019-01-08T06:50:09.859Z,75.20
2019-01-08T06:50:55.836Z,75.10
2019-01-08T06:51:28.812Z,75.20
2019-01-08T06:52:07.561Z,75.00
2019-01-08T06:52:46.332Z,75.60
2019-01-08T06:53:25.030Z,75.30
2019-01-08T06:54:03.781Z,75.30
2019-01-08T06:54:42.497Z,75.20
2019-01-08T06:55:22.479Z,75.20
2019-01-08T06:56:01.188Z,75.60
2019-01-08T06:56:39.947Z,75.70
2019-01-08T06:57:18.647Z,75.60
2019-01-08T06:57:57.317Z,75.40
2019-01-08T06:58:36.064Z,75.30
2019-01-08T06:59:14.741Z,75.30
2019-01-08T06:59:53.456Z,75.20
2019-01-08T07:00:33.369Z,75.20
2019-01-08T07:01:12.493Z,75.20
2019-01-08T07:01:51.168Z,75.10
2019-01-08T07:02:29.822Z,75.10
2019-01-08T07:03:08.509Z,75.10
2019-01-08T07:03:47.284Z,75.10
2019-01-08T07:04:26.137Z,75.30
2019-01-08T07:05:04.769Z,75.30
2019-01-08T07:05:43.445Z,75.40
2019-01-08T07:06:22.197Z,75.40
2019-01-08T07:07:00.939Z,75.40
2019-01-08T07:07:39.663Z,75.50
2019-01-08T07:08:18.598Z,75.40
2019-01-08T07:08:57.385Z,75.40
2019-01-08T07:09:36.237Z,75.60
2019-01-08T07:10:15.156Z,75.60
2019-01-08T07:10:54.212Z,75.80
2019-01-08T07:11:32.928Z,75.70
2019-01-08T07:12:11.678Z,75.90
2019-01-08T07:12:50.436Z,75.90
2019-01-08T07:13:29.227Z,76.00
2019-01-08T07:14:07.977Z,76.10
2019-01-08T07:14:46.692Z,76.00
2019-01-08T07:15:25.491Z,76.00
2019-01-08T07:16:04.167Z,76.60
2019-01-08T07:16:42.941Z,76.10
2019-01-08T07:17:21.697Z,76.10
2019-01-08T07:18:00.419Z,76.10
2019-01-08T07:18:39.071Z,76.00
2019-01-08T07:19:17.838Z,76.40
2019-01-08T07:19:56.504Z,76.20
2019-01-08T07:20:35.148Z,76.00
2019-01-08T07:21:13.778Z,76.00
2019-01-08T07:21:52.533Z,76.00
2019-01-08T07:22:31.219Z,75.90
2019-01-08T07:23:09.988Z,76.00
2019-01-08T07:23:48.581Z,75.90
2019-01-08T07:24:27.289Z,76.10
2019-01-08T07:25:06.035Z,75.90
2019-01-08T07:25:44.702Z,76.10
2019-01-08T07:26:23.447Z,76.10
2019-01-08T07:27:02.116Z,75.80
2019-01-08T07:27:40.821Z,75.80
2019-01-08T07:28:19.671Z,75.80
2019-01-08T07:28:58.360Z,75.70
2019-01-08T07:29:37.038Z,76.50
2019-01-08T07:30:15.882Z,75.70
2019-01-08T07:30:54.618Z,75.70
2019-01-08T07:31:33.384Z,75.70
2019-01-08T07:32:12.122Z,75.60
2019-01-08T07:32:50.890Z,75.50
2019-01-08T07:33:29.663Z,75.60
2019-01-08T07:34:08.401Z,75.60
2019-01-08T07:34:47.119Z,75.60
2019-01-08T07:35:25.993Z,75.30
2019-01-08T07:36:04.705Z,75.30
2019-01-08T07:36:44.027Z,75.30
2019-01-08T07:37:23.259Z,75.60
2019-01-08T07:38:02.358Z,75.50
2019-01-08T07:38:41.291Z,75.10
2019-01-08T07:39:20.563Z,75.30
2019-01-08T07:40:00.473Z,75.50
2019-01-08T07:40:41.386Z,75.40
2019-01-08T07:41:20.343Z,75.50
2019-01-08T07:41:59.016Z,75.50
2019-01-08T07:42:37.622Z,75.20
2019-01-08T07:43:16.326Z,75.50
2019-01-08T07:43:54.972Z,75.60
2019-01-08T07:44:33.739Z,75.60
2019-01-08T07:45:12.518Z,75.70
2019-01-08T07:45:51.180Z,75.80
2019-01-08T07:46:29.927Z,75.40
2019-01-08T07:47:08.629Z,75.40
2019-01-08T07:47:47.408Z,75.30
2019-01-08T07:48:26.266Z,75.50
2019-01-08T07:49:05.065Z,75.70
2019-01-08T07:49:43.872Z,75.70
2019-01-08T07:50:22.630Z,75.50
2019-01-08T07:51:01.364Z,75.50
2019-01-08T07:51:40.177Z,75.50
2019-01-08T07:52:18.934Z,75.40
2019-01-08T07:52:57.703Z,75.30
2019-01-08T07:53:36.527Z,75.20
2019-01-08T07:54:15.189Z,75.30
2019-01-08T07:54:53.955Z,75.30
2019-01-08T07:55:32.706Z,75.10
2019-01-08T07:56:11.459Z,75.10
2019-01-08T07:56:50.091Z,75.30
2019-01-08T07:57:28.693Z,75.00
2019-01-08T07:58:07.411Z,74.90
2019-01-08T07:58:46.229Z,75.00
2019-01-08T07:59:24.946Z,75.20
2019-01-08T08:00:03.677Z,74.70
2019-01-08T08:00:49.753Z,75.10
2019-01-08T08:01:22.590Z,75.40
2019-01-08T08:02:01.814Z,75.10
2019-01-08T08:02:40.570Z,74.90
2019-01-08T08:03:19.642Z,74.80
2019-01-08T08:03:58.421Z,75.00
2019-01-08T08:04:37.216Z,75.10
2019-01-08T08:05:16.093Z,75.00
2019-01-08T08:05:54.824Z,75.10
2019-01-08T08:06:33.583Z,75.40
2019-01-08T08:07:12.207Z,75.10
2019-01-08T08:07:50.890Z,75.00
2019-01-08T08:08:29.589Z,75.00
2019-01-08T08:09:09.164Z,74.90
2019-01-08T08:09:47.842Z,75.10
2019-01-08T08:10:26.804Z,75.00
2019-01-08T08:11:05.408Z,74.90
2019-01-08T08:11:44.140Z,75.00
2019-01-08T08:12:22.820Z,75.20
2019-01-08T08:13:01.633Z,75.30
2019-01-08T08:13:40.352Z,74.90
2019-01-08T08:14:18.981Z,74.80
2019-01-08T08:14:57.602Z,74.80
2019-01-08T08:15:36.383Z,75.00
2019-01-08T08:16:15.147Z,75.00
2019-01-08T08:16:53.880Z,75.10
2019-01-08T08:17:32.549Z,75.20
2019-01-08T08:18:11.327Z,74.90
2019-01-08T08:18:49.989Z,75.00
2019-01-08T08:19:28.659Z,75.00